createdAt,value
2022-09-20T00:00:42.591Z,100461.34
2022-09-20T00:01:44.864Z,100461.59
2022-09-20T00:02:47.071Z,100463.50
2022-09-20T00:03:54.384Z,100457.97
2022-09-20T00:04:56.671Z,100461.00
2022-09-20T00:06:01.944Z,100457.16
2022-09-20T00:07:04.185Z,100466.53
2022-09-20T00:08:09.099Z,100457.66
2022-09-20T00:09:11.240Z,100452.13
2022-09-20T00:10:14.209Z,100455.16
2022-09-20T00:11:21.603Z,100454.06
2022-09-20T00:12:24.138Z,100461.53
2022-09-20T00:13:26.288Z,100462.63
2022-09-20T00:14:28.417Z,100464.53
2022-09-20T00:15:31.024Z,100465.38
2022-09-20T00:16:36.479Z,100462.88
2022-09-20T00:17:38.677Z,100464.78
2022-09-20T00:18:41.561Z,100463.97
2022-09-20T00:19:43.700Z,100459.53
2022-09-20T00:20:47.265Z,100451.50
2022-09-20T00:21:49.610Z,100465.88
2022-09-20T00:22:51.831Z,100457.03
2022-09-20T00:23:54.302Z,100465.03
2022-09-20T00:24:56.462Z,100456.16
2022-09-20T00:26:04.049Z,100458.94
2022-09-20T00:27:06.290Z,100449.00
2022-09-20T00:28:09.422Z,100457.28
2022-09-20T00:29:12.957Z,100454.53
2022-09-20T00:30:15.467Z,100461.13
2022-09-20T00:31:19.261Z,100454.75
2022-09-20T00:32:21.474Z,100459.44
2022-09-20T00:33:45.514Z,100456.69
2022-09-20T00:35:06.255Z,100454.97
2022-09-20T00:36:08.435Z,100454.97
2022-09-20T00:37:10.634Z,100459.69
2022-09-20T00:38:16.107Z,100454.16
2022-09-20T00:39:18.304Z,100451.41
2022-09-20T00:40:22.759Z,100455.25
2022-09-20T00:41:25.467Z,100457.19
2022-09-20T00:42:29.930Z,100460.75
2022-09-20T00:43:44.800Z,100465.47
2022-09-20T00:45:03.633Z,100468.22
2022-09-20T00:46:16.624Z,100467.38
2022-09-20T00:47:33.830Z,100466.53
2022-09-20T00:48:36.005Z,100462.09
2022-09-20T00:49:38.653Z,100470.38
2022-09-20T00:50:53.711Z,100466.81
2022-09-20T00:52:00.681Z,100459.59
2022-09-20T00:53:09.233Z,100467.88
2022-09-20T00:54:19.529Z,100468.72
2022-09-20T00:55:22.888Z,100463.44
2022-09-20T00:56:29.820Z,100460.69
2022-09-20T00:57:35.397Z,100461.56
2022-09-20T00:58:41.487Z,100456.25
2022-09-20T00:59:48.058Z,100460.69
2022-09-20T01:00:52.871Z,100464.53
2022-09-20T01:02:18.099Z,100460.94
2022-09-20T01:03:23.513Z,100460.94
2022-09-20T01:04:35.949Z,100467.28
2022-09-20T01:05:40.267Z,100465.66
2022-09-20T01:06:46.090Z,100463.72
2022-09-20T01:07:51.738Z,100460.94
2022-09-20T01:08:56.579Z,100462.03
2022-09-20T01:10:01.861Z,100464.81
2022-09-20T01:11:04.367Z,100465.66
2022-09-20T01:12:13.707Z,100468.41
2022-09-20T01:13:15.951Z,100469.50
2022-09-20T01:14:22.302Z,100469.50
2022-09-20T01:15:28.056Z,100463.97
2022-09-20T01:16:32.825Z,100469.50
2022-09-20T01:17:37.791Z,100462.31
2022-09-20T01:18:44.485Z,100466.72
2022-09-20T01:20:10.601Z,100462.31
2022-09-20T01:21:14.207Z,100465.88
2022-09-20T01:22:25.294Z,100468.63
2022-09-20T01:23:49.341Z,100466.72
2022-09-20T01:24:59.073Z,100461.22
2022-09-20T01:26:46.453Z,100463.38
2022-09-20T01:27:52.384Z,100464.22
2022-09-20T01:29:10.217Z,100459.53
2022-09-20T01:30:18.453Z,100461.47
2022-09-20T01:31:33.616Z,100454.28
2022-09-20T01:33:00.760Z,100453.44
2022-09-20T01:34:11.322Z,100457.03
2022-09-20T01:35:16.733Z,100452.59
2022-09-20T01:36:31.733Z,100461.97
2022-09-20T01:37:52.621Z,100463.63
2022-09-20T01:39:30.973Z,100464.47
2022-09-20T01:40:43.281Z,100460.88
2022-09-20T01:41:58.878Z,100454.53
2022-09-20T01:43:26.651Z,100460.06
2022-09-20T01:45:01.009Z,100464.72
2022-09-20T01:46:31.583Z,100463.91
2022-09-20T01:48:03.753Z,100460.28
2022-09-20T01:49:31.015Z,100463.06
2022-09-20T01:51:06.051Z,100456.69
2022-09-20T01:52:11.202Z,100464.16
2022-09-20T01:53:47.491Z,100453.94
2022-09-20T01:54:58.922Z,100460.28
2022-09-20T01:56:33.633Z,100464.97
2022-09-20T01:58:01.481Z,100456.09
2022-09-20T01:59:41.641Z,100462.47
2022-09-20T02:01:23.505Z,100458.88
2022-09-20T02:02:53.598Z,100458.88
2022-09-20T02:04:30.242Z,100465.25
2022-09-20T02:05:55.651Z,100458.31
2022-09-20T02:07:22.515Z,100459.97
2022-09-20T02:08:54.938Z,100458.31
2022-09-20T02:10:27.608Z,100463.81
2022-09-20T02:11:44.964Z,100467.66
2022-09-20T02:12:56.065Z,100470.44
2022-09-20T02:14:27.643Z,100470.44
2022-09-20T02:16:07.179Z,100471.50
2022-09-20T02:17:14.082Z,100468.75
2022-09-20T02:18:37.354Z,100467.94
2022-09-20T02:20:18.689Z,100467.94
2022-09-20T02:21:33.424Z,100469.84
2022-09-20T02:22:53.264Z,100474.53
2022-09-20T02:24:11.971Z,100470.94
2022-09-20T02:25:57.905Z,100469.00
2022-09-20T02:27:24.096Z,100471.78
2022-09-20T02:28:31.985Z,100465.44
2022-09-20T02:29:50.299Z,100468.19
2022-09-20T02:31:21.777Z,100469.84
2022-09-20T02:32:46.021Z,100466.25
2022-09-20T02:34:08.395Z,100469.00
2022-09-20T02:35:19.851Z,100465.44
2022-09-20T02:36:45.002Z,100468.19
2022-09-20T02:37:57.433Z,100476.47
2022-09-20T02:39:10.798Z,100470.09
2022-09-20T02:40:31.802Z,100473.72
2022-09-20T02:41:47.320Z,100472.59
2022-09-20T02:43:10.161Z,100467.06
2022-09-20T02:44:49.812Z,100476.47
2022-09-20T02:46:18.047Z,100470.94
2022-09-20T02:47:40.311Z,100476.47
2022-09-20T02:48:48.624Z,100476.69
2022-09-20T02:49:55.747Z,100473.13
2022-09-20T02:51:21.497Z,100475.88
2022-09-20T02:52:49.288Z,100475.88
2022-09-20T02:54:00.629Z,100473.38
2022-09-20T02:55:28.745Z,100479.72
2022-09-20T02:56:47.740Z,100478.06
2022-09-20T02:58:11.632Z,100480.81
2022-09-20T02:59:47.316Z,100478.28
2022-09-20T03:01:07.292Z,100489.34
2022-09-20T03:02:16.357Z,100483.00
2022-09-20T03:03:43.329Z,100483.00
2022-09-20T03:05:33.669Z,100486.84
2022-09-20T03:06:41.750Z,100487.91
2022-09-20T03:08:04.620Z,100487.34
2022-09-20T03:09:29.492Z,100485.66
2022-09-20T03:10:50.491Z,100486.75
2022-09-20T03:12:20.027Z,100490.59
2022-09-20T03:13:30.933Z,100498.03
2022-09-20T03:14:38.518Z,100496.63
2022-09-20T03:16:07.120Z,100491.38
2022-09-20T03:17:42.472Z,100501.53
2022-09-20T03:19:00.328Z,100499.91
2022-09-20T03:20:33.469Z,100500.97
2022-09-20T03:21:59.847Z,100498.22
2022-09-20T03:23:10.932Z,100502.06
2022-09-20T03:25:01.350Z,100500.91
2022-09-20T03:26:30.712Z,100498.13
2022-09-20T03:27:46.109Z,100508.34
2022-09-20T03:29:25.890Z,100505.00
2022-09-20T03:30:42.886Z,100500.56
2022-09-20T03:32:13.580Z,100499.72
2022-09-20T03:33:43.912Z,100500.81
2022-09-20T03:35:06.844Z,100507.41
2022-09-20T03:36:47.330Z,100502.16
2022-09-20T03:38:08.430Z,100506.84
2022-09-20T03:39:22.753Z,100504.09
2022-09-20T03:40:55.994Z,100507.06
2022-09-20T03:42:19.909Z,100502.66
2022-09-20T03:43:33.450Z,100503.75
2022-09-20T03:45:02.312Z,100500.97
2022-09-20T03:46:19.771Z,100505.63
2022-09-20T03:48:02.872Z,100505.91
2022-09-20T03:49:42.009Z,100510.59
2022-09-20T03:51:06.017Z,100505.06
2022-09-20T03:52:19.470Z,100514.16
2022-09-20T03:53:42.327Z,100511.66
2022-09-20T03:55:27.867Z,100508.09
2022-09-20T03:57:05.147Z,100510.00
2022-09-20T03:58:13.244Z,100508.09
2022-09-20T03:59:32.040Z,100507.22
2022-09-20T04:00:46.121Z,100507.22
2022-09-20T04:02:06.868Z,100511.06
2022-09-20T04:03:28.798Z,100514.69
2022-09-20T04:04:57.597Z,100511.06
2022-09-20T04:06:29.869Z,100512.19
2022-09-20T04:07:40.726Z,100508.31
2022-09-20T04:09:07.535Z,100518.53
2022-09-20T04:10:33.844Z,100515.75
2022-09-20T04:11:51.852Z,100516.59
2022-09-20T04:13:03.344Z,100511.06
2022-09-20T04:14:23.750Z,100513.81
2022-09-20T04:15:46.283Z,100524.63
2022-09-20T04:17:01.868Z,100510.84
2022-09-20T04:18:19.534Z,100517.19
2022-09-20T04:19:49.276Z,100514.44
2022-09-20T04:20:59.061Z,100519.13
2022-09-20T04:22:02.330Z,100522.69
2022-09-20T04:23:18.004Z,100520.75
2022-09-20T04:24:25.611Z,100523.53
2022-09-20T04:25:40.698Z,100523.53
2022-09-20T04:26:50.427Z,100528.81
2022-09-20T04:28:02.089Z,100526.88
2022-09-20T04:29:31.875Z,100526.88
2022-09-20T04:30:44.093Z,100527.13
2022-09-20T04:31:54.468Z,100529.63
2022-09-20T04:33:02.226Z,100533.47
2022-09-20T04:34:10.911Z,100532.41
2022-09-20T04:35:46.917Z,100534.31
2022-09-20T04:37:05.115Z,100527.69
2022-09-20T04:38:15.268Z,100527.69
2022-09-20T04:39:51.660Z,100530.47
2022-09-20T04:41:31.994Z,100533.22
2022-09-20T04:42:42.862Z,100542.34
2022-09-20T04:43:58.483Z,100534.06
2022-09-20T04:45:33.283Z,100536.84
2022-09-20T04:47:13.168Z,100545.09
2022-09-20T04:48:30.256Z,100542.34
2022-09-20T04:49:55.888Z,100545.94
2022-09-20T04:51:28.971Z,100548.69
2022-09-20T04:53:04.722Z,100547.88
2022-09-20T04:54:37.168Z,100545.94
2022-09-20T04:56:03.186Z,100542.34
2022-09-20T04:57:34.476Z,100547.00
2022-09-20T04:59:04.486Z,100541.50
2022-09-20T05:00:16.289Z,100541.50
2022-09-20T05:02:10.627Z,100542.59
2022-09-20T05:03:37.622Z,100537.31
2022-09-20T05:05:01.947Z,100546.19
2022-09-20T05:06:24.101Z,100543.69
2022-09-20T05:07:38.448Z,100546.44
2022-09-20T05:09:14.803Z,100551.94
2022-09-20T05:10:50.006Z,100553.84
2022-09-20T05:12:15.350Z,100552.22
2022-09-20T05:13:57.414Z,100551.09
2022-09-20T05:15:21.160Z,100562.97
2022-09-20T05:16:36.041Z,100563.25
2022-09-20T05:17:54.358Z,100561.06
2022-09-20T05:19:07.595Z,100566.81
2022-09-20T05:20:46.995Z,100566.56
2022-09-20T05:22:16.516Z,100568.50
2022-09-20T05:23:58.511Z,100565.75
2022-09-20T05:25:28.288Z,100564.06
2022-09-20T05:26:52.057Z,100568.50
2022-09-20T05:28:25.076Z,100568.50
2022-09-20T05:29:32.315Z,100569.56
2022-09-20T05:30:43.776Z,100564.88
2022-09-20T05:32:07.662Z,100575.09
2022-09-20T05:33:23.944Z,100579.53
2022-09-20T05:34:54.677Z,100575.91
2022-09-20T05:36:34.924Z,100576.78
2022-09-20T05:37:52.143Z,100574.84
2022-09-20T05:39:31.852Z,100572.09
2022-09-20T05:40:51.575Z,100579.53
2022-09-20T05:42:02.741Z,100574.84
2022-09-20T05:43:28.860Z,100581.22
2022-09-20T05:44:53.236Z,100582.28
2022-09-20T05:45:58.492Z,100579.53
2022-09-20T05:47:27.127Z,100581.22
2022-09-20T05:48:52.236Z,100583.13
2022-09-20T05:50:26.826Z,100584.78
2022-09-20T05:51:47.660Z,100589.22
2022-09-20T05:53:14.497Z,100592.00
2022-09-20T05:54:43.667Z,100590.91
2022-09-20T05:56:03.147Z,100598.31
2022-09-20T05:57:30.159Z,100587.28
2022-09-20T05:58:35.113Z,100589.81
2022-09-20T05:59:56.429Z,100593.41
2022-09-20T06:01:04.566Z,100598.06
2022-09-20T06:02:27.834Z,100597.84
2022-09-20T06:03:47.419Z,100598.44
2022-09-20T06:05:01.779Z,100605.00
2022-09-20T06:06:06.882Z,100602.25
2022-09-20T06:07:32.131Z,100597.34
2022-09-20T06:08:58.080Z,100604.53
2022-09-20T06:10:31.541Z,100602.59
2022-09-20T06:11:45.739Z,100602.59
2022-09-20T06:12:53.939Z,100603.22
2022-09-20T06:14:05.307Z,100604.88
2022-09-20T06:15:29.229Z,100611.22
2022-09-20T06:16:35.323Z,100604.63
2022-09-20T06:17:43.795Z,100612.66
2022-09-20T06:18:54.707Z,100605.22
2022-09-20T06:20:22.626Z,100606.06
2022-09-20T06:21:50.738Z,100607.72
2022-09-20T06:22:56.753Z,100609.13
2022-09-20T06:24:00.845Z,100608.91
2022-09-20T06:25:09.007Z,100611.41
2022-09-20T06:26:18.091Z,100609.22
2022-09-20T06:27:29.125Z,100610.91
2022-09-20T06:28:37.185Z,100615.34
2022-09-20T06:29:44.167Z,100617.59
2022-09-20T06:30:54.969Z,100608.22
2022-09-20T06:31:57.273Z,100607.16
2022-09-20T06:33:20.966Z,100611.34
2022-09-20T06:34:23.497Z,100611.09
2022-09-20T06:35:35.674Z,100611.69
2022-09-20T06:36:59.748Z,100611.44
2022-09-20T06:38:45.845Z,100606.25
2022-09-20T06:40:50.284Z,100614.28
2022-09-20T06:41:53.806Z,100614.63
2022-09-20T06:42:56.120Z,100616.88
2022-09-20T06:44:00.986Z,100613.03
2022-09-20T06:45:03.441Z,100613.59
2022-09-20T06:46:05.985Z,100618.03
2022-09-20T06:47:11.791Z,100616.69
2022-09-20T06:48:15.642Z,100625.31
2022-09-20T06:49:18.142Z,100621.50
2022-09-20T06:50:20.504Z,100621.25
2022-09-20T06:51:24.641Z,100622.66
2022-09-20T06:52:26.925Z,100617.72
2022-09-20T06:53:32.828Z,100622.75
2022-09-20T06:54:35.101Z,100620.56
2022-09-20T06:55:41.023Z,100621.16
2022-09-20T06:56:45.628Z,100627.00
2022-09-20T06:57:47.779Z,100615.72
2022-09-20T06:58:50.076Z,100625.41
2022-09-20T06:59:52.507Z,100624.06
2022-09-20T07:00:54.837Z,100626.56
2022-09-20T07:01:57.904Z,100628.81
2022-09-20T07:03:00.148Z,100623.88
2022-09-20T07:04:04.216Z,100630.84
2022-09-20T07:05:08.097Z,100629.50
2022-09-20T07:06:10.936Z,100628.16
2022-09-20T07:07:18.159Z,100625.97
2022-09-20T07:08:20.389Z,100634.00
2022-09-20T07:09:22.631Z,100637.06
2022-09-20T07:10:28.274Z,100634.91
2022-09-20T07:11:35.036Z,100638.25
2022-09-20T07:12:37.691Z,100634.38
2022-09-20T07:13:39.827Z,100635.81
2022-09-20T07:14:43.165Z,100639.16
2022-09-20T07:15:45.383Z,100638.09
2022-09-20T07:16:47.530Z,100644.44
2022-09-20T07:17:51.146Z,100648.63
2022-09-20T07:18:54.512Z,100635.66
2022-09-20T07:19:57.249Z,100641.75
2022-09-20T07:21:01.153Z,100644.25
2022-09-20T07:22:03.663Z,100645.09
2022-09-20T07:23:05.904Z,100643.97
2022-09-20T07:24:08.066Z,100640.13
2022-09-20T07:25:10.221Z,100649.00
2022-09-20T07:26:35.243Z,100650.69
2022-09-20T07:27:37.421Z,100646.81
2022-09-20T07:28:39.539Z,100650.16
2022-09-20T07:29:41.665Z,100650.75
2022-09-20T07:30:44.275Z,100649.91
2022-09-20T07:31:46.495Z,100653.28
2022-09-20T07:32:48.877Z,100649.41
2022-09-20T07:33:51.578Z,100649.41
2022-09-20T07:34:54.103Z,100654.69
2022-09-20T07:35:56.443Z,100659.69
2022-09-20T07:37:00.039Z,100655.03
2022-09-20T07:38:03.152Z,100659.44
2022-09-20T07:39:05.352Z,100663.03
2022-09-20T07:40:09.562Z,100668.31
2022-09-20T07:41:11.768Z,100665.03
2022-09-20T07:42:14.437Z,100666.97
2022-09-20T07:43:16.579Z,100665.63
2022-09-20T07:44:24.409Z,100670.06
2022-09-20T07:45:26.646Z,100667.28
2022-09-20T07:46:28.788Z,100670.88
2022-09-20T07:47:35.489Z,100669.81
2022-09-20T07:48:38.254Z,100675.06
2022-09-20T07:49:40.596Z,100669.53
2022-09-20T07:50:51.060Z,100671.22
2022-09-20T07:51:54.573Z,100673.13
2022-09-20T07:52:57.550Z,100665.09
2022-09-20T07:53:59.702Z,100675.31
2022-09-20T07:55:02.529Z,100678.09
2022-09-20T07:56:14.243Z,100674.25
2022-09-20T07:57:17.031Z,100675.31
2022-09-20T07:58:19.172Z,100670.06
2022-09-20T07:59:22.378Z,100677.00
2022-09-20T08:00:24.625Z,100673.66
2022-09-20T08:01:26.892Z,100676.41
2022-09-20T08:02:29.197Z,100673.38
2022-09-20T08:03:33.174Z,100678.09
2022-09-20T08:04:35.370Z,100678.91
2022-09-20T08:05:37.524Z,100680.00
2022-09-20T08:06:42.446Z,100679.78
2022-09-20T08:07:44.588Z,100684.19
2022-09-20T08:08:47.455Z,100681.41
2022-09-20T08:09:49.687Z,100681.41
2022-09-20T08:10:51.874Z,100681.19
2022-09-20T08:11:54.539Z,100681.75
2022-09-20T08:14:19.179Z,100683.16
2022-09-20T08:15:21.527Z,100682.34
2022-09-20T08:16:24.137Z,100686.19
2022-09-20T08:17:26.337Z,100685.38
2022-09-20T08:18:28.496Z,100684.25
2022-09-20T08:19:30.689Z,100686.19
2022-09-20T08:20:37.145Z,100691.47
2022-09-20T08:21:39.922Z,100688.69
2022-09-20T08:22:43.418Z,100693.97
2022-09-20T08:23:48.411Z,100689.28
2022-09-20T08:24:52.023Z,100689.28
2022-09-20T08:25:57.237Z,100690.13
2022-09-20T08:26:59.358Z,100695.38
2022-09-20T08:28:01.835Z,100690.72
2022-09-20T08:29:05.879Z,100690.72
2022-09-20T08:30:09.227Z,100697.06
2022-09-20T08:31:17.008Z,100695.97
2022-09-20T08:32:19.201Z,100702.91
2022-09-20T08:33:21.444Z,100700.16
2022-09-20T08:34:24.218Z,100698.81
2022-09-20T08:35:29.612Z,100704.06
2022-09-20T08:36:36.353Z,100700.47
2022-09-20T08:37:39.349Z,100693.00
2022-09-20T08:40:04.789Z,100696.09
2022-09-20T08:41:11.915Z,100704.13
2022-09-20T08:42:40.353Z,100704.97
2022-09-20T08:43:58.340Z,100701.09
2022-09-20T08:45:07.613Z,100700.03
2022-09-20T08:46:15.081Z,100701.69
2022-09-20T08:47:36.864Z,100705.28
2022-09-20T08:48:39.702Z,100701.69
2022-09-20T08:49:46.041Z,100707.78
2022-09-20T08:50:49.618Z,100705.03
2022-09-20T08:51:52.767Z,100710.31
2022-09-20T08:53:00.659Z,100705.63
2022-09-20T08:54:04.825Z,100712.88
2022-09-20T08:55:20.220Z,100710.09
2022-09-20T08:56:22.991Z,100710.09
2022-09-20T08:57:28.792Z,100707.06
2022-09-20T08:58:30.973Z,100712.88
2022-09-20T08:59:33.649Z,100712.59
2022-09-20T09:00:37.820Z,100709.56
2022-09-20T09:01:39.982Z,100709.56
2022-09-20T09:02:42.160Z,100714.00
2022-09-20T09:03:44.338Z,100713.75
2022-09-20T09:04:51.677Z,100710.97
2022-09-20T09:05:56.091Z,100719.03
2022-09-20T09:06:58.426Z,100712.13
2022-09-20T09:08:05.055Z,100713.00
2022-09-20T09:09:07.911Z,100719.94
2022-09-20T09:10:10.266Z,100715.22
2022-09-20T09:11:23.536Z,100714.13
2022-09-20T09:12:35.750Z,100716.38
2022-09-20T09:14:05.193Z,100715.28
2022-09-20T09:15:26.568Z,100720.56
2022-09-20T09:16:35.272Z,100714.75
2022-09-20T09:17:40.557Z,100716.44
2022-09-20T09:18:45.075Z,100710.41
2022-09-20T09:19:56.159Z,100718.72
2022-09-20T09:20:59.400Z,100710.69
2022-09-20T09:22:04.540Z,100711.56
2022-09-20T09:23:09.290Z,100713.19
2022-09-20T09:24:19.419Z,100712.09
2022-09-20T09:25:25.501Z,100707.44
2022-09-20T09:26:28.747Z,100712.69
2022-09-20T09:27:30.918Z,100706.31
2022-09-20T09:28:36.999Z,100704.94
2022-09-20T09:29:49.872Z,100710.25
2022-09-20T09:30:52.117Z,100709.41
2022-09-20T09:31:57.199Z,100710.25
2022-09-20T09:33:14.601Z,100713.56
2022-09-20T09:34:28.540Z,100706.94
2022-09-20T09:35:31.911Z,100704.19
2022-09-20T09:36:43.981Z,100713.06
2022-09-20T09:38:19.673Z,100713.91
2022-09-20T09:39:24.281Z,100705.06
2022-09-20T09:40:29.770Z,100709.50
2022-09-20T09:41:35.759Z,100718.13
2022-09-20T09:42:55.838Z,100705.69
2022-09-20T09:44:10.077Z,100710.44
2022-09-20T09:45:27.127Z,100714.38
2022-09-20T09:46:36.286Z,100718.56
2022-09-20T09:47:38.691Z,100718.03
2022-09-20T09:48:40.916Z,100716.38
2022-09-20T09:50:03.800Z,100729.47
2022-09-20T09:51:10.536Z,100712.56
2022-09-20T09:52:15.839Z,100713.72
2022-09-20T09:53:24.895Z,100722.06
2022-09-20T09:54:29.561Z,100721.53
2022-09-20T09:55:55.935Z,100721.03
2022-09-20T09:57:23.478Z,100724.09
2022-09-20T09:58:59.113Z,100720.25
2022-09-20T10:00:17.802Z,100719.47
2022-09-20T10:01:36.405Z,100728.09
2022-09-20T10:02:55.715Z,100726.47
2022-09-20T10:04:10.785Z,100729.59
2022-09-20T10:05:15.686Z,100728.78
2022-09-20T10:06:39.236Z,100725.22
2022-09-20T10:07:45.799Z,100727.72
2022-09-20T10:09:34.056Z,100724.97
2022-09-20T10:11:04.358Z,100725.00
2022-09-20T10:12:30.259Z,100725.88
2022-09-20T10:13:57.847Z,100729.78
2022-09-20T10:15:15.409Z,100731.75
2022-09-20T10:16:29.324Z,100734.56
2022-09-20T10:17:49.650Z,100730.97
2022-09-20T10:19:22.836Z,100723.78
2022-09-20T10:20:36.880Z,100721.59
2022-09-20T10:22:08.344Z,100728.25
2022-09-20T10:24:03.703Z,100722.19
2022-09-20T10:25:15.661Z,100724.72
2022-09-20T10:26:39.588Z,100725.84
2022-09-20T10:28:02.343Z,100729.16
2022-09-20T10:29:04.431Z,100727.53
2022-09-20T10:30:18.769Z,100723.38
2022-09-20T10:31:37.974Z,100724.50
2022-09-20T10:33:05.561Z,100724.53
2022-09-20T10:34:43.609Z,100720.38
2022-09-20T10:36:04.762Z,100722.31
2022-09-20T10:37:24.207Z,100721.50
2022-09-20T10:38:43.685Z,100725.41
2022-09-20T10:39:55.464Z,100727.66
2022-09-20T10:41:45.245Z,100732.41
2022-09-20T10:43:12.074Z,100730.75
2022-09-20T10:44:20.045Z,100729.09
2022-09-20T10:47:20.440Z,100724.94
2022-09-20T10:48:31.881Z,100735.53
2022-09-20T10:51:24.390Z,100734.41
2022-09-20T10:52:37.886Z,100728.03
2022-09-20T10:54:11.351Z,100734.69
2022-09-20T10:55:29.007Z,100728.03
2022-09-20T10:56:36.980Z,100732.22
2022-09-20T10:57:54.722Z,100729.16
2022-09-20T10:59:28.583Z,100730.25
2022-09-20T11:00:50.875Z,100730.84
2022-09-20T11:02:26.706Z,100731.38
2022-09-20T11:03:29.758Z,100725.56
2022-09-20T11:04:50.257Z,100729.75
2022-09-20T11:06:22.582Z,100732.78
2022-09-20T11:08:01.272Z,100735.28
2022-09-20T11:09:13.862Z,100735.56
2022-09-20T11:10:20.689Z,100728.06
2022-09-20T11:11:31.184Z,100736.94
2022-09-20T11:12:51.405Z,100732.25
2022-09-20T11:14:12.706Z,100732.78
2022-09-20T11:15:21.444Z,100732.25
2022-09-20T11:16:32.170Z,100732.78
2022-09-20T11:17:52.832Z,100727.53
2022-09-20T11:18:59.346Z,100730.28
2022-09-20T11:20:25.950Z,100735.28
2022-09-20T11:21:47.079Z,100728.63
2022-09-20T11:22:56.819Z,100741.97
2022-09-20T11:24:01.823Z,100738.94
2022-09-20T11:25:16.758Z,100728.63
2022-09-20T11:26:32.138Z,100731.69
2022-09-20T11:27:49.711Z,100739.47
2022-09-20T11:29:08.841Z,100743.09
2022-09-20T11:30:19.010Z,100737.53
2022-09-20T11:31:35.720Z,100741.69
2022-09-20T11:33:00.613Z,100733.06
2022-09-20T11:34:12.478Z,100743.09
2022-09-20T11:36:00.589Z,100747.50
2022-09-20T11:37:03.592Z,100742.81
2022-09-20T11:38:15.753Z,100737.78
2022-09-20T11:39:21.077Z,100745.63
2022-09-20T11:40:28.624Z,100742.25
2022-09-20T11:41:31.880Z,100740.59
2022-09-20T11:42:37.074Z,100741.97
2022-09-20T11:43:42.869Z,100742.53
2022-09-20T11:44:47.875Z,100733.63
2022-09-20T11:45:55.613Z,100736.97
2022-09-20T11:47:11.749Z,100733.91
2022-09-20T11:48:26.413Z,100740.56
2022-09-20T11:49:39.679Z,100739.19
2022-09-20T11:50:57.308Z,100723.06
2022-09-20T11:52:21.357Z,100729.16
2022-09-20T11:54:03.100Z,100730.53
2022-09-20T11:55:28.149Z,100730.25
2022-09-20T11:56:32.631Z,100736.94
2022-09-20T11:57:34.932Z,100729.41
2022-09-20T11:58:48.907Z,100719.13
2022-09-20T12:00:02.895Z,100723.28
2022-09-20T12:01:17.457Z,100723.84
2022-09-20T12:02:45.257Z,100720.50
2022-09-20T12:04:04.259Z,100733.28
2022-09-20T12:05:42.047Z,100732.19
2022-09-20T12:06:45.377Z,100734.16
2022-09-20T12:07:53.872Z,100736.94
2022-09-20T12:08:58.693Z,100734.41
2022-09-20T12:10:08.576Z,100743.88
2022-09-20T12:11:16.159Z,100742.50
2022-09-20T12:12:48.288Z,100734.69
2022-09-20T12:14:05.137Z,100732.78
2022-09-20T12:15:27.504Z,100734.19
2022-09-20T12:16:42.576Z,100743.34
2022-09-20T12:17:48.249Z,100731.13
2022-09-20T12:18:54.069Z,100741.97
2022-09-20T12:19:56.225Z,100734.72
2022-09-20T12:21:06.051Z,100740.06
2022-09-20T12:22:08.201Z,100735.03
2022-09-20T12:23:41.325Z,100739.19
2022-09-20T12:24:46.843Z,100742.56
2022-09-20T12:26:06.122Z,100736.69
2022-09-20T12:27:44.009Z,100735.56
2022-09-20T12:28:50.063Z,100735.28
2022-09-20T12:30:03.419Z,100740.31
2022-09-20T12:31:29.637Z,100731.69
2022-09-20T12:33:18.426Z,100723.34
2022-09-20T12:34:20.624Z,100729.19
2022-09-20T12:35:39.172Z,100726.66
2022-09-20T12:36:53.533Z,100728.91
2022-09-20T12:37:58.273Z,100723.63
2022-09-20T12:39:05.360Z,100720.84
2022-09-20T12:40:16.443Z,100732.25
2022-09-20T12:41:28.143Z,100724.16
2022-09-20T12:42:33.220Z,100717.78
2022-09-20T12:43:46.727Z,100718.91
2022-09-20T12:44:51.866Z,100718.06
2022-09-20T12:45:59.884Z,100720.00
2022-09-20T12:47:08.514Z,100716.13
2022-09-20T12:48:19.898Z,100716.97
2022-09-20T12:49:53.240Z,100715.00
2022-09-20T12:51:36.717Z,100713.06
2022-09-20T12:52:50.796Z,100709.16
2022-09-20T12:54:02.645Z,100716.41
2022-09-20T12:55:10.253Z,100715.28
2022-09-20T12:56:19.985Z,100713.34
2022-09-20T12:57:32.435Z,100716.97
2022-09-20T12:58:45.318Z,100721.97
2022-09-20T12:59:56.609Z,100718.31
2022-09-20T13:01:04.985Z,100711.94
2022-09-20T13:02:42.792Z,100713.34
2022-09-20T13:03:48.932Z,100717.78
2022-09-20T13:04:55.527Z,100710.28
2022-09-20T13:06:06.804Z,100709.16
2022-09-20T13:07:43.343Z,100718.06
2022-09-20T13:08:52.136Z,100716.94
2022-09-20T13:09:54.728Z,100715.84
2022-09-20T13:11:28.142Z,100719.19
2022-09-20T13:12:30.706Z,100720.56
2022-09-20T13:13:44.247Z,100724.16
2022-09-20T13:14:47.567Z,100727.50
2022-09-20T13:15:54.492Z,100718.88
2022-09-20T13:17:01.364Z,100721.38
2022-09-20T13:18:05.748Z,100724.44
2022-09-20T13:19:31.593Z,100718.63
2022-09-20T13:20:35.299Z,100727.25
2022-09-20T13:21:40.752Z,100727.78
2022-09-20T13:22:45.507Z,100722.50
2022-09-20T13:23:55.236Z,100714.72
2022-09-20T13:25:02.137Z,100725.28
2022-09-20T13:26:09.499Z,100731.94
2022-09-20T13:27:38.060Z,100725.00
2022-09-20T13:28:49.639Z,100719.69
2022-09-20T13:29:53.441Z,100726.94
2022-09-20T13:31:20.571Z,100723.88
2022-09-20T13:32:26.912Z,100724.44
2022-09-20T13:33:29.071Z,100725.81
2022-09-20T13:34:31.598Z,100723.03
2022-09-20T13:35:34.236Z,100719.97
2022-09-20T13:36:39.252Z,100718.84
2022-09-20T13:37:53.780Z,100724.97
2022-09-20T13:38:57.816Z,100725.53
2022-09-20T13:40:00.441Z,100719.66
2022-09-20T13:41:10.589Z,100727.44
2022-09-20T13:42:19.430Z,100735.50
2022-09-20T13:43:29.734Z,100722.16
2022-09-20T13:44:36.998Z,100730.22
2022-09-20T13:45:42.595Z,100722.16
2022-09-20T13:46:45.791Z,100733.00
2022-09-20T13:47:51.679Z,100726.59
2022-09-20T13:49:17.606Z,100733.00
2022-09-20T13:50:24.075Z,100741.34
2022-09-20T13:51:28.069Z,100743.84
2022-09-20T13:52:31.859Z,100766.09
2022-09-20T13:53:43.001Z,100753.31
2022-09-20T13:54:47.166Z,100759.44
2022-09-20T13:55:49.469Z,100767.53
2022-09-20T13:56:52.382Z,100772.81
2022-09-20T13:57:57.579Z,100763.91
2022-09-20T13:59:05.506Z,100765.88
2022-09-20T14:00:13.657Z,100756.16
2022-09-20T14:01:31.142Z,100764.22
2022-09-20T14:02:34.394Z,100756.97
2022-09-20T14:03:36.747Z,100758.66
2022-09-20T14:04:39.406Z,100762.84
2022-09-20T14:05:47.258Z,100773.97
2022-09-20T14:06:53.660Z,100777.84
2022-09-20T14:07:57.677Z,100770.03
2022-09-20T14:09:07.083Z,100772.53
2022-09-20T14:10:28.913Z,100777.56
2022-09-20T14:11:33.796Z,100781.72
2022-09-20T14:12:36.664Z,100781.69